Toyo Maru — JI3710 — position and weather

sailwx.info

Track history (hours):
 
Tides and Currents Weather Stations Pressure Air Temp Water Temp Dewpoint Dewpoint Depression Visibility Wind Speed Wind Dir Waves Ship Positions

Toyo Maru

Last reported at 2014-Oct-29 11:31 UTC. Time now 2014-Oct-30 12:20 UTC.
Position N 35°11' E 139°45'.

Length 125 m; draft 6 m.

Type: Cargo ship. MMSI: 431401953.

Date/timePositionNaut miles runAvg speedWind from/ knotsBaromVisibWave heightAir tempDewpointWater temp
2014-Oct-29 11:31N 35°11' E 139°45'1313.5
2014-Oct-29 10:34N 35°24' E 139°42'17 1.0
2014-Oct-28 18:12N 35°33' E 139°60'1117.4
2014-Oct-28 17:33N 35°26' E 139°49'1111.4
2014-Oct-28 16:33N 35°15' E 139°47'25610.1
2014-Oct-27 15:12N 34°04' E 134°47'10713.9
2014-Oct-27 07:28N 34°04' E 132°38'1414.7
2014-Oct-27 06:33N 34°09' E 132°23'1312.7
2014-Oct-27 05:31N 34°21' E 132°29'0 0.0
2014-Oct-27 04:31N 34°21' E 132°29'0 0.0
2014-Oct-27 03:31N 34°21' E 132°29'0 0.0
2014-Oct-27 02:33N 34°21' E 132°29'0 0.0
2014-Oct-27 01:33N 34°21' E 132°29'6 6.0
2014-Oct-27 00:34N 34°19' E 132°22'0 0.1
2014-Oct-26 23:31N 34°19' E 132°22'0 0.0
2014-Oct-26 22:31N 34°19' E 132°22'0 0.0
2014-Oct-26 21:31N 34°19' E 132°22'0 0.0
2014-Oct-26 20:31N 34°19' E 132°22'0 0.0
2014-Oct-26 19:31N 34°19' E 132°22'0 0.0
2014-Oct-26 18:31N 34°19' E 132°22'0 0.0
2014-Oct-26 17:25N 34°19' E 132°22'0 0.0
2014-Oct-26 16:22N 34°19' E 132°22'0 0.4
2014-Oct-26 15:34N 34°19' E 132°22'4 0.3
2014-Oct-26 03:32N 34°15' E 132°21'6 6.1
2014-Oct-26 02:34N 34°21' E 132°22'3 2.9
2014-Oct-26 01:33N 34°20' E 132°25'5 4.7
2014-Oct-26 00:28N 34°21' E 132°31'0 0.0
2014-Oct-25 23:28N 34°21' E 132°31'0 0.0
2014-Oct-25 22:16N 34°21' E 132°31'0 0.0
2014-Oct-25 21:28N 34°21' E 132°31'0 0.0
2014-Oct-25 20:31N 34°21' E 132°31'0 0.0
2014-Oct-25 19:25N 34°21' E 132°31'0 0.0
2014-Oct-25 18:25N 34°21' E 132°31'0 0.0
2014-Oct-25 17:31N 34°21' E 132°31'0 0.0
2014-Oct-25 16:10N 34°21' E 132°31'2 3.4
2014-Oct-25 15:33N 34°21' E 132°28'36012.7
2014-Oct-24 11:06N 35°07' E 139°43'915.5
2014-Oct-24 10:33N 35°15' E 139°46'1212.3
2014-Oct-24 09:33N 35°27' E 139°48'11 0.9
2014-Oct-23 21:19N 35°33' E 139°59'1216.5
2014-Oct-23 20:33N 35°25' E 139°48'1110.8
2014-Oct-23 19:33N 35°15' E 139°47'256 9.1
2014-Oct-22 15:31N 34°05' E 134°48'10815.0
2014-Oct-22 08:20N 34°04' E 132°37'1214.4
2014-Oct-22 07:28N 34°08' E 132°23'1314.6
2014-Oct-22 06:33N 34°21' E 132°28'1 0.6
2014-Oct-22 05:31N 34°21' E 132°29'0 0.0
2014-Oct-22 04:31N 34°21' E 132°29'0 0.0
2014-Oct-22 03:31N 34°21' E 132°29'0 0.0
2014-Oct-22 02:31N 34°21' E 132°29'0 0.0
2014-Oct-22 01:31N 34°21' E 132°29'0 0.0
2014-Oct-22 00:31N 34°21' E 132°29'0 0.0
2014-Oct-21 23:31N 34°21' E 132°29'0 0.0
2014-Oct-21 22:31N 34°21' E 132°29'0 0.0
2014-Oct-21 21:31N 34°21' E 132°29'0 0.0
2014-Oct-21 20:31N 34°21' E 132°29'0 0.0
2014-Oct-21 19:31N 34°21' E 132°29'0 0.0
2014-Oct-21 18:31N 34°21' E 132°29'0 0.0
2014-Oct-21 17:31N 34°21' E 132°29'0 0.0
2014-Oct-21 16:31N 34°21' E 132°29'6 6.5
2014-Oct-21 15:33N 34°17' E 132°23'1817.6
2014-Oct-21 14:33N 34°01' E 132°15'11 0.9
2014-Oct-21 02:31N 34°11' E 132°20'1212.3
2014-Oct-21 01:31N 34°21' E 132°29'0 0.1
2014-Oct-21 00:33N 34°21' E 132°29'2 1.7
2014-Oct-20 23:33N 34°21' E 132°31'0 0.0
2014-Oct-20 22:33N 34°21' E 132°31'0 0.0
2014-Oct-20 21:33N 34°21' E 132°31'0 0.0
2014-Oct-20 19:33N 34°21' E 132°31'0 0.0
2014-Oct-20 18:33N 34°21' E 132°31'0 0.0
2014-Oct-20 17:30N 34°21' E 132°31'0 0.0
2014-Oct-20 16:33N 34°21' E 132°31'0 0.0
2014-Oct-20 15:33N 34°21' E 132°31'0 0.0
2014-Oct-20 14:33N 34°21' E 132°31'2 2.1
2014-Oct-20 13:33N 34°21' E 132°28'  
Track history (hours):
 
Tides and Currents Weather Stations Pressure Air Temp Water Temp Dewpoint Dewpoint Depression Visibility Wind Speed Wind Dir Waves Ship Positions

Toyo Maru

Last reported at 2014-Oct-29 11:31 UTC. Time now 2014-Oct-30 12:20 UTC.
Position N 35°11' E 139°45'.

Length 125 m; draft 6 m.

Type: Cargo ship. MMSI: 431401953.

Date/timePositionNaut miles runAvg speedWind from/ knotsBaromVisibWave heightAir tempDewpointWater temp
2014-Oct-29 11:31N 35°11' E 139°45'1313.5
2014-Oct-29 10:34N 35°24' E 139°42'17 1.0
2014-Oct-28 18:12N 35°33' E 139°60'1117.4
2014-Oct-28 17:33N 35°26' E 139°49'1111.4
2014-Oct-28 16:33N 35°15' E 139°47'25610.1
2014-Oct-27 15:12N 34°04' E 134°47'10713.9
2014-Oct-27 07:28N 34°04' E 132°38'1414.7
2014-Oct-27 06:33N 34°09' E 132°23'1312.7
2014-Oct-27 05:31N 34°21' E 132°29'0 0.0
2014-Oct-27 04:31N 34°21' E 132°29'0 0.0
2014-Oct-27 03:31N 34°21' E 132°29'0 0.0
2014-Oct-27 02:33N 34°21' E 132°29'0 0.0
2014-Oct-27 01:33N 34°21' E 132°29'6 6.0
2014-Oct-27 00:34N 34°19' E 132°22'0 0.1
2014-Oct-26 23:31N 34°19' E 132°22'0 0.0
2014-Oct-26 22:31N 34°19' E 132°22'0 0.0
2014-Oct-26 21:31N 34°19' E 132°22'0 0.0
2014-Oct-26 20:31N 34°19' E 132°22'0 0.0
2014-Oct-26 19:31N 34°19' E 132°22'0 0.0
2014-Oct-26 18:31N 34°19' E 132°22'0 0.0
2014-Oct-26 17:25N 34°19' E 132°22'0 0.0
2014-Oct-26 16:22N 34°19' E 132°22'0 0.4
2014-Oct-26 15:34N 34°19' E 132°22'4 0.3
2014-Oct-26 03:32N 34°15' E 132°21'6 6.1
2014-Oct-26 02:34N 34°21' E 132°22'3 2.9
2014-Oct-26 01:33N 34°20' E 132°25'5 4.7
2014-Oct-26 00:28N 34°21' E 132°31'0 0.0
2014-Oct-25 23:28N 34°21' E 132°31'0 0.0
2014-Oct-25 22:16N 34°21' E 132°31'0 0.0
2014-Oct-25 21:28N 34°21' E 132°31'0 0.0
2014-Oct-25 20:31N 34°21' E 132°31'0 0.0
2014-Oct-25 19:25N 34°21' E 132°31'0 0.0
2014-Oct-25 18:25N 34°21' E 132°31'0 0.0
2014-Oct-25 17:31N 34°21' E 132°31'0 0.0
2014-Oct-25 16:10N 34°21' E 132°31'2 3.4
2014-Oct-25 15:33N 34°21' E 132°28'36012.7
2014-Oct-24 11:06N 35°07' E 139°43'915.5
2014-Oct-24 10:33N 35°15' E 139°46'1212.3
2014-Oct-24 09:33N 35°27' E 139°48'11 0.9
2014-Oct-23 21:19N 35°33' E 139°59'1216.5
2014-Oct-23 20:33N 35°25' E 139°48'1110.8
2014-Oct-23 19:33N 35°15' E 139°47'256 9.1
2014-Oct-22 15:31N 34°05' E 134°48'10815.0
2014-Oct-22 08:20N 34°04' E 132°37'1214.4
2014-Oct-22 07:28N 34°08' E 132°23'1314.6
2014-Oct-22 06:33N 34°21' E 132°28'1 0.6
2014-Oct-22 05:31N 34°21' E 132°29'0 0.0
2014-Oct-22 04:31N 34°21' E 132°29'0 0.0
2014-Oct-22 03:31N 34°21' E 132°29'0 0.0
2014-Oct-22 02:31N 34°21' E 132°29'0 0.0
2014-Oct-22 01:31N 34°21' E 132°29'0 0.0
2014-Oct-22 00:31N 34°21' E 132°29'0 0.0
2014-Oct-21 23:31N 34°21' E 132°29'0 0.0
2014-Oct-21 22:31N 34°21' E 132°29'0 0.0
2014-Oct-21 21:31N 34°21' E 132°29'0 0.0
2014-Oct-21 20:31N 34°21' E 132°29'0 0.0
2014-Oct-21 19:31N 34°21' E 132°29'0 0.0
2014-Oct-21 18:31N 34°21' E 132°29'0 0.0
2014-Oct-21 17:31N 34°21' E 132°29'0 0.0
2014-Oct-21 16:31N 34°21' E 132°29'6 6.5
2014-Oct-21 15:33N 34°17' E 132°23'1817.6
2014-Oct-21 14:33N 34°01' E 132°15'11 0.9
2014-Oct-21 02:31N 34°11' E 132°20'1212.3
2014-Oct-21 01:31N 34°21' E 132°29'0 0.1
2014-Oct-21 00:33N 34°21' E 132°29'2 1.7
2014-Oct-20 23:33N 34°21' E 132°31'0 0.0
2014-Oct-20 22:33N 34°21' E 132°31'0 0.0
2014-Oct-20 21:33N 34°21' E 132°31'0 0.0
2014-Oct-20 19:33N 34°21' E 132°31'0 0.0
2014-Oct-20 18:33N 34°21' E 132°31'0 0.0
2014-Oct-20 17:30N 34°21' E 132°31'0 0.0
2014-Oct-20 16:33N 34°21' E 132°31'0 0.0
2014-Oct-20 15:33N 34°21' E 132°31'0 0.0
2014-Oct-20 14:33N 34°21' E 132°31'2 2.1
2014-Oct-20 13:33N 34°21' E 132°28'  

Dump ship's entire track history